<?xml version="1.0" encoding="UTF-8" standalone="no" ?>
<gpx xmlns="http://www.topografix.com/GPX/1/1" xmlns:xsi="http://www.w3.org/2001/XMLSchema-instance" xsi:schemaLocation="http://www.topografix.com/GPX/1/1 http://www.topografix.com/GPX/1/1/gpx.xsd" version="1.1" creator="VisuGPX - https://www.visugpx.com">
  <metadata>
    <name>running du 14 février 2016</name>
    <desc><![CDATA[running du 14 février 2016]]></desc>
  </metadata>
  <trk>
    <name><![CDATA[14-FEV-16 11:01:46]]></name>
    <trkseg>
      <trkpt lat="43.47378" lon="-1.49902">
        <ele>21.29</ele>
        <time>2016-02-14T09:17:06Z</time>
      </trkpt>
      <trkpt lat="43.47386" lon="-1.49856">
        <ele>21.29</ele>
        <time>2016-02-14T09:17:42Z</time>
      </trkpt>
      <trkpt lat="43.47386" lon="-1.49842">
        <ele>20.81</ele>
        <time>2016-02-14T09:17:55Z</time>
      </trkpt>
      <trkpt lat="43.47384" lon="-1.49842">
        <ele>20.81</ele>
        <time>2016-02-14T09:18:10Z</time>
      </trkpt>
      <trkpt lat="43.47381" lon="-1.49848">
        <ele>20.81</ele>
        <time>2016-02-14T09:18:21Z</time>
      </trkpt>
      <trkpt lat="43.47376" lon="-1.49851">
        <ele>20.81</ele>
        <time>2016-02-14T09:18:25Z</time>
      </trkpt>
      <trkpt lat="43.47365" lon="-1.49853">
        <ele>20.81</ele>
        <time>2016-02-14T09:18:33Z</time>
      </trkpt>
      <trkpt lat="43.47369" lon="-1.49846">
        <ele>20.81</ele>
        <time>2016-02-14T09:18:38Z</time>
      </trkpt>
      <trkpt lat="43.47372" lon="-1.49862">
        <ele>20.81</ele>
        <time>2016-02-14T09:18:47Z</time>
      </trkpt>
      <trkpt lat="43.47351" lon="-1.49878">
        <ele>20.81</ele>
        <time>2016-02-14T09:18:55Z</time>
      </trkpt>
      <trkpt lat="43.47351" lon="-1.49892">
        <ele>20.81</ele>
        <time>2016-02-14T09:18:59Z</time>
      </trkpt>
      <trkpt lat="43.47348" lon="-1.49922">
        <ele>20.81</ele>
        <time>2016-02-14T09:19:07Z</time>
      </trkpt>
      <trkpt lat="43.47344" lon="-1.49931">
        <ele>21.29</ele>
        <time>2016-02-14T09:19:10Z</time>
      </trkpt>
      <trkpt lat="43.47329" lon="-1.49937">
        <ele>21.29</ele>
        <time>2016-02-14T09:19:16Z</time>
      </trkpt>
      <trkpt lat="43.47307" lon="-1.49944">
        <ele>21.29</ele>
        <time>2016-02-14T09:19:23Z</time>
      </trkpt>
      <trkpt lat="43.47301" lon="-1.49951">
        <ele>21.29</ele>
        <time>2016-02-14T09:19:29Z</time>
      </trkpt>
      <trkpt lat="43.4728" lon="-1.49954">
        <ele>21.29</ele>
        <time>2016-02-14T09:19:35Z</time>
      </trkpt>
      <trkpt lat="43.47274" lon="-1.49958">
        <ele>21.29</ele>
        <time>2016-02-14T09:19:39Z</time>
      </trkpt>
      <trkpt lat="43.47273" lon="-1.49967">
        <ele>21.29</ele>
        <time>2016-02-14T09:19:44Z</time>
      </trkpt>
      <trkpt lat="43.47254" lon="-1.49993">
        <ele>21.29</ele>
        <time>2016-02-14T09:19:54Z</time>
      </trkpt>
      <trkpt lat="43.47253" lon="-1.49997">
        <ele>21.29</ele>
        <time>2016-02-14T09:19:55Z</time>
      </trkpt>
      <trkpt lat="43.47242" lon="-1.5002">
        <ele>21.29</ele>
        <time>2016-02-14T09:20:02Z</time>
      </trkpt>
      <trkpt lat="43.47239" lon="-1.50032">
        <ele>21.29</ele>
        <time>2016-02-14T09:20:06Z</time>
      </trkpt>
      <trkpt lat="43.47222" lon="-1.50068">
        <ele>21.29</ele>
        <time>2016-02-14T09:20:17Z</time>
      </trkpt>
      <trkpt lat="43.47219" lon="-1.50073">
        <ele>21.29</ele>
        <time>2016-02-14T09:20:19Z</time>
      </trkpt>
      <trkpt lat="43.47215" lon="-1.5009">
        <ele>21.29</ele>
        <time>2016-02-14T09:20:26Z</time>
      </trkpt>
      <trkpt lat="43.4721" lon="-1.50104">
        <ele>21.29</ele>
        <time>2016-02-14T09:20:32Z</time>
      </trkpt>
      <trkpt lat="43.47168" lon="-1.50135">
        <ele>21.29</ele>
        <time>2016-02-14T09:20:44Z</time>
      </trkpt>
      <trkpt lat="43.47163" lon="-1.50139">
        <ele>21.29</ele>
        <time>2016-02-14T09:20:45Z</time>
      </trkpt>
      <trkpt lat="43.4716" lon="-1.50176">
        <ele>21.29</ele>
        <time>2016-02-14T09:20:53Z</time>
      </trkpt>
      <trkpt lat="43.47168" lon="-1.50196">
        <ele>21.77</ele>
        <time>2016-02-14T09:20:59Z</time>
      </trkpt>
      <trkpt lat="43.47161" lon="-1.50219">
        <ele>21.77</ele>
        <time>2016-02-14T09:21:06Z</time>
      </trkpt>
      <trkpt lat="43.47144" lon="-1.50257">
        <ele>21.77</ele>
        <time>2016-02-14T09:21:18Z</time>
      </trkpt>
      <trkpt lat="43.47143" lon="-1.50259">
        <ele>21.77</ele>
        <time>2016-02-14T09:21:19Z</time>
      </trkpt>
      <trkpt lat="43.47143" lon="-1.50272">
        <ele>21.77</ele>
        <time>2016-02-14T09:21:24Z</time>
      </trkpt>
      <trkpt lat="43.47133" lon="-1.50291">
        <ele>21.77</ele>
        <time>2016-02-14T09:21:29Z</time>
      </trkpt>
      <trkpt lat="43.47124" lon="-1.50306">
        <ele>21.77</ele>
        <time>2016-02-14T09:21:33Z</time>
      </trkpt>
      <trkpt lat="43.47115" lon="-1.50322">
        <ele>21.77</ele>
        <time>2016-02-14T09:21:37Z</time>
      </trkpt>
      <trkpt lat="43.47113" lon="-1.5034">
        <ele>21.77</ele>
        <time>2016-02-14T09:21:44Z</time>
      </trkpt>
      <trkpt lat="43.47102" lon="-1.50366">
        <ele>21.77</ele>
        <time>2016-02-14T09:21:51Z</time>
      </trkpt>
      <trkpt lat="43.47094" lon="-1.50402">
        <ele>22.25</ele>
        <time>2016-02-14T09:22:01Z</time>
      </trkpt>
      <trkpt lat="43.4709" lon="-1.50412">
        <ele>22.25</ele>
        <time>2016-02-14T09:22:03Z</time>
      </trkpt>
      <trkpt lat="43.47083" lon="-1.5043">
        <ele>22.25</ele>
        <time>2016-02-14T09:22:07Z</time>
      </trkpt>
      <trkpt lat="43.4708" lon="-1.50445">
        <ele>22.25</ele>
        <time>2016-02-14T09:22:11Z</time>
      </trkpt>
      <trkpt lat="43.47077" lon="-1.50457">
        <ele>22.25</ele>
        <time>2016-02-14T09:22:14Z</time>
      </trkpt>
      <trkpt lat="43.47075" lon="-1.50484">
        <ele>22.25</ele>
        <time>2016-02-14T09:22:21Z</time>
      </trkpt>
      <trkpt lat="43.4708" lon="-1.50504">
        <ele>22.25</ele>
        <time>2016-02-14T09:22:27Z</time>
      </trkpt>
      <trkpt lat="43.47081" lon="-1.50541">
        <ele>22.73</ele>
        <time>2016-02-14T09:22:36Z</time>
      </trkpt>
      <trkpt lat="43.47078" lon="-1.5057">
        <ele>22.73</ele>
        <time>2016-02-14T09:22:43Z</time>
      </trkpt>
      <trkpt lat="43.47074" lon="-1.50594">
        <ele>22.73</ele>
        <time>2016-02-14T09:22:49Z</time>
      </trkpt>
      <trkpt lat="43.47075" lon="-1.506">
        <ele>22.73</ele>
        <time>2016-02-14T09:22:51Z</time>
      </trkpt>
      <trkpt lat="43.47099" lon="-1.50612">
        <ele>23.21</ele>
        <time>2016-02-14T09:23:06Z</time>
      </trkpt>
      <trkpt lat="43.47109" lon="-1.50626">
        <ele>23.21</ele>
        <time>2016-02-14T09:23:11Z</time>
      </trkpt>
      <trkpt lat="43.47109" lon="-1.50668">
        <ele>23.21</ele>
        <time>2016-02-14T09:23:22Z</time>
      </trkpt>
      <trkpt lat="43.47112" lon="-1.5068">
        <ele>23.21</ele>
        <time>2016-02-14T09:23:25Z</time>
      </trkpt>
      <trkpt lat="43.47106" lon="-1.50694">
        <ele>23.21</ele>
        <time>2016-02-14T09:23:29Z</time>
      </trkpt>
      <trkpt lat="43.47087" lon="-1.50721">
        <ele>23.21</ele>
        <time>2016-02-14T09:23:37Z</time>
      </trkpt>
      <trkpt lat="43.47099" lon="-1.50738">
        <ele>23.21</ele>
        <time>2016-02-14T09:23:42Z</time>
      </trkpt>
      <trkpt lat="43.47101" lon="-1.50743">
        <ele>23.21</ele>
        <time>2016-02-14T09:23:44Z</time>
      </trkpt>
      <trkpt lat="43.471" lon="-1.50756">
        <ele>23.21</ele>
        <time>2016-02-14T09:23:48Z</time>
      </trkpt>
      <trkpt lat="43.471" lon="-1.50764">
        <ele>23.21</ele>
        <time>2016-02-14T09:23:51Z</time>
      </trkpt>
      <trkpt lat="43.47109" lon="-1.50785">
        <ele>23.69</ele>
        <time>2016-02-14T09:23:57Z</time>
      </trkpt>
      <trkpt lat="43.47117" lon="-1.50809">
        <ele>23.69</ele>
        <time>2016-02-14T09:24:05Z</time>
      </trkpt>
      <trkpt lat="43.47114" lon="-1.50814">
        <ele>23.69</ele>
        <time>2016-02-14T09:24:09Z</time>
      </trkpt>
      <trkpt lat="43.4711" lon="-1.50822">
        <ele>23.69</ele>
        <time>2016-02-14T09:24:13Z</time>
      </trkpt>
      <trkpt lat="43.47111" lon="-1.50833">
        <ele>23.69</ele>
        <time>2016-02-14T09:24:17Z</time>
      </trkpt>
      <trkpt lat="43.47121" lon="-1.50843">
        <ele>23.69</ele>
        <time>2016-02-14T09:24:21Z</time>
      </trkpt>
      <trkpt lat="43.47129" lon="-1.50864">
        <ele>24.17</ele>
        <time>2016-02-14T09:24:29Z</time>
      </trkpt>
      <trkpt lat="43.47133" lon="-1.50872">
        <ele>24.17</ele>
        <time>2016-02-14T09:24:32Z</time>
      </trkpt>
      <trkpt lat="43.47156" lon="-1.50881">
        <ele>24.17</ele>
        <time>2016-02-14T09:24:38Z</time>
      </trkpt>
      <trkpt lat="43.47207" lon="-1.5091">
        <ele>24.65</ele>
        <time>2016-02-14T09:24:48Z</time>
      </trkpt>
      <trkpt lat="43.47202" lon="-1.50944">
        <ele>24.65</ele>
        <time>2016-02-14T09:24:59Z</time>
      </trkpt>
      <trkpt lat="43.472" lon="-1.50947">
        <ele>24.65</ele>
        <time>2016-02-14T09:25:00Z</time>
      </trkpt>
      <trkpt lat="43.47198" lon="-1.50979">
        <ele>25.13</ele>
        <time>2016-02-14T09:25:12Z</time>
      </trkpt>
      <trkpt lat="43.47203" lon="-1.50992">
        <ele>25.13</ele>
        <time>2016-02-14T09:25:17Z</time>
      </trkpt>
      <trkpt lat="43.4725" lon="-1.51013">
        <ele>25.13</ele>
        <time>2016-02-14T09:25:26Z</time>
      </trkpt>
      <trkpt lat="43.4728" lon="-1.51028">
        <ele>25.61</ele>
        <time>2016-02-14T09:25:34Z</time>
      </trkpt>
      <trkpt lat="43.47283" lon="-1.51031">
        <ele>25.61</ele>
        <time>2016-02-14T09:25:36Z</time>
      </trkpt>
      <trkpt lat="43.47299" lon="-1.51056">
        <ele>25.61</ele>
        <time>2016-02-14T09:25:45Z</time>
      </trkpt>
      <trkpt lat="43.473" lon="-1.51058">
        <ele>25.61</ele>
        <time>2016-02-14T09:25:46Z</time>
      </trkpt>
      <trkpt lat="43.47301" lon="-1.51063">
        <ele>25.61</ele>
        <time>2016-02-14T09:25:49Z</time>
      </trkpt>
      <trkpt lat="43.47307" lon="-1.51067">
        <ele>25.61</ele>
        <time>2016-02-14T09:25:51Z</time>
      </trkpt>
      <trkpt lat="43.47303" lon="-1.51076">
        <ele>26.09</ele>
        <time>2016-02-14T09:25:55Z</time>
      </trkpt>
      <trkpt lat="43.47294" lon="-1.51092">
        <ele>26.09</ele>
        <time>2016-02-14T09:26:03Z</time>
      </trkpt>
      <trkpt lat="43.47274" lon="-1.51108">
        <ele>26.09</ele>
        <time>2016-02-14T09:26:14Z</time>
      </trkpt>
      <trkpt lat="43.47272" lon="-1.5111">
        <ele>26.09</ele>
        <time>2016-02-14T09:26:16Z</time>
      </trkpt>
      <trkpt lat="43.47267" lon="-1.51113">
        <ele>26.09</ele>
        <time>2016-02-14T09:26:20Z</time>
      </trkpt>
      <trkpt lat="43.47245" lon="-1.51127">
        <ele>26.57</ele>
        <time>2016-02-14T09:26:32Z</time>
      </trkpt>
      <trkpt lat="43.47222" lon="-1.51143">
        <ele>26.57</ele>
        <time>2016-02-14T09:26:46Z</time>
      </trkpt>
      <trkpt lat="43.4721" lon="-1.5115">
        <ele>26.57</ele>
        <time>2016-02-14T09:26:52Z</time>
      </trkpt>
      <trkpt lat="43.47174" lon="-1.51173">
        <ele>27.05</ele>
        <time>2016-02-14T09:27:05Z</time>
      </trkpt>
      <trkpt lat="43.47137" lon="-1.51193">
        <ele>27.05</ele>
        <time>2016-02-14T09:27:20Z</time>
      </trkpt>
      <trkpt lat="43.47127" lon="-1.512">
        <ele>27.53</ele>
        <time>2016-02-14T09:27:25Z</time>
      </trkpt>
      <trkpt lat="43.47103" lon="-1.51214">
        <ele>27.53</ele>
        <time>2016-02-14T09:27:39Z</time>
      </trkpt>
      <trkpt lat="43.47085" lon="-1.51222">
        <ele>27.53</ele>
        <time>2016-02-14T09:27:50Z</time>
      </trkpt>
      <trkpt lat="43.47071" lon="-1.5123">
        <ele>27.53</ele>
        <time>2016-02-14T09:28:02Z</time>
      </trkpt>
      <trkpt lat="43.47049" lon="-1.51241">
        <ele>28.02</ele>
        <time>2016-02-14T09:28:12Z</time>
      </trkpt>
      <trkpt lat="43.47022" lon="-1.51252">
        <ele>28.02</ele>
        <time>2016-02-14T09:28:23Z</time>
      </trkpt>
      <trkpt lat="43.46992" lon="-1.51263">
        <ele>28.02</ele>
        <time>2016-02-14T09:28:33Z</time>
      </trkpt>
      <trkpt lat="43.46952" lon="-1.51274">
        <ele>28.02</ele>
        <time>2016-02-14T09:28:46Z</time>
      </trkpt>
      <trkpt lat="43.46949" lon="-1.51275">
        <ele>28.02</ele>
        <time>2016-02-14T09:28:47Z</time>
      </trkpt>
      <trkpt lat="43.4694" lon="-1.51268">
        <ele>28.02</ele>
        <time>2016-02-14T09:28:52Z</time>
      </trkpt>
      <trkpt lat="43.46933" lon="-1.51234">
        <ele>28.02</ele>
        <time>2016-02-14T09:29:03Z</time>
      </trkpt>
      <trkpt lat="43.46927" lon="-1.51194">
        <ele>28.02</ele>
        <time>2016-02-14T09:29:15Z</time>
      </trkpt>
      <trkpt lat="43.46925" lon="-1.51159">
        <ele>28.02</ele>
        <time>2016-02-14T09:29:25Z</time>
      </trkpt>
      <trkpt lat="43.46982" lon="-1.5108">
        <ele>64.55</ele>
        <time>2016-02-14T09:29:37Z</time>
      </trkpt>
      <trkpt lat="43.46986" lon="-1.51035">
        <ele>63.58</ele>
        <time>2016-02-14T09:29:49Z</time>
      </trkpt>
      <trkpt lat="43.46991" lon="-1.5099">
        <ele>63.1</ele>
        <time>2016-02-14T09:30:01Z</time>
      </trkpt>
      <trkpt lat="43.46998" lon="-1.50961">
        <ele>61.18</ele>
        <time>2016-02-14T09:30:11Z</time>
      </trkpt>
      <trkpt lat="43.47011" lon="-1.50932">
        <ele>57.82</ele>
        <time>2016-02-14T09:30:22Z</time>
      </trkpt>
      <trkpt lat="43.4702" lon="-1.50934">
        <ele>55.89</ele>
        <time>2016-02-14T09:30:26Z</time>
      </trkpt>
      <trkpt lat="43.4703" lon="-1.5094">
        <ele>55.41</ele>
        <time>2016-02-14T09:30:31Z</time>
      </trkpt>
      <trkpt lat="43.47035" lon="-1.50941">
        <ele>54.45</ele>
        <time>2016-02-14T09:30:40Z</time>
      </trkpt>
      <trkpt lat="43.4704" lon="-1.50928">
        <ele>54.45</ele>
        <time>2016-02-14T09:30:47Z</time>
      </trkpt>
      <trkpt lat="43.4705" lon="-1.5092">
        <ele>54.45</ele>
        <time>2016-02-14T09:30:52Z</time>
      </trkpt>
      <trkpt lat="43.4707" lon="-1.50934">
        <ele>53.01</ele>
        <time>2016-02-14T09:31:03Z</time>
      </trkpt>
      <trkpt lat="43.47083" lon="-1.5094">
        <ele>52.53</ele>
        <time>2016-02-14T09:31:10Z</time>
      </trkpt>
      <trkpt lat="43.47089" lon="-1.5094">
        <ele>53.49</ele>
        <time>2016-02-14T09:31:13Z</time>
      </trkpt>
      <trkpt lat="43.47097" lon="-1.50945">
        <ele>53.49</ele>
        <time>2016-02-14T09:31:17Z</time>
      </trkpt>
      <trkpt lat="43.47108" lon="-1.5094">
        <ele>51.57</ele>
        <time>2016-02-14T09:31:26Z</time>
      </trkpt>
      <trkpt lat="43.47109" lon="-1.50941">
        <ele>52.05</ele>
        <time>2016-02-14T09:31:31Z</time>
      </trkpt>
      <trkpt lat="43.47111" lon="-1.50942">
        <ele>53.01</ele>
        <time>2016-02-14T09:31:34Z</time>
      </trkpt>
      <trkpt lat="43.47117" lon="-1.50945">
        <ele>53.49</ele>
        <time>2016-02-14T09:31:38Z</time>
      </trkpt>
      <trkpt lat="43.47123" lon="-1.50939">
        <ele>53.97</ele>
        <time>2016-02-14T09:31:43Z</time>
      </trkpt>
      <trkpt lat="43.47144" lon="-1.5092">
        <ele>54.93</ele>
        <time>2016-02-14T09:31:56Z</time>
      </trkpt>
      <trkpt lat="43.47172" lon="-1.50895">
        <ele>56.37</ele>
        <time>2016-02-14T09:32:09Z</time>
      </trkpt>
      <trkpt lat="43.47187" lon="-1.50884">
        <ele>55.89</ele>
        <time>2016-02-14T09:32:18Z</time>
      </trkpt>
      <trkpt lat="43.47205" lon="-1.50898">
        <ele>60.7</ele>
        <time>2016-02-14T09:32:28Z</time>
      </trkpt>
      <trkpt lat="43.47205" lon="-1.50898">
        <ele>60.7</ele>
        <time>2016-02-14T09:32:29Z</time>
      </trkpt>
      <trkpt lat="43.47208" lon="-1.509">
        <ele>59.74</ele>
        <time>2016-02-14T09:32:32Z</time>
      </trkpt>
      <trkpt lat="43.47207" lon="-1.50904">
        <ele>59.26</ele>
        <time>2016-02-14T09:32:36Z</time>
      </trkpt>
      <trkpt lat="43.47206" lon="-1.5091">
        <ele>59.74</ele>
        <time>2016-02-14T09:32:41Z</time>
      </trkpt>
      <trkpt lat="43.47208" lon="-1.50915">
        <ele>59.74</ele>
        <time>2016-02-14T09:32:45Z</time>
      </trkpt>
      <trkpt lat="43.47212" lon="-1.50928">
        <ele>63.1</ele>
        <time>2016-02-14T09:32:57Z</time>
      </trkpt>
      <trkpt lat="43.47212" lon="-1.5093">
        <ele>65.99</ele>
        <time>2016-02-14T09:33:08Z</time>
      </trkpt>
      <trkpt lat="43.4719" lon="-1.50935">
        <ele>68.87</ele>
        <time>2016-02-14T09:33:18Z</time>
      </trkpt>
      <trkpt lat="43.47172" lon="-1.50942">
        <ele>69.35</ele>
        <time>2016-02-14T09:33:23Z</time>
      </trkpt>
      <trkpt lat="43.47155" lon="-1.50944">
        <ele>70.31</ele>
        <time>2016-02-14T09:33:37Z</time>
      </trkpt>
      <trkpt lat="43.47148" lon="-1.50946">
        <ele>71.27</ele>
        <time>2016-02-14T09:33:42Z</time>
      </trkpt>
      <trkpt lat="43.4712" lon="-1.50959">
        <ele>70.79</ele>
        <time>2016-02-14T09:33:52Z</time>
      </trkpt>
      <trkpt lat="43.4709" lon="-1.50986">
        <ele>69.35</ele>
        <time>2016-02-14T09:34:00Z</time>
      </trkpt>
      <trkpt lat="43.47086" lon="-1.50991">
        <ele>69.35</ele>
        <time>2016-02-14T09:34:02Z</time>
      </trkpt>
      <trkpt lat="43.47072" lon="-1.50976">
        <ele>72.24</ele>
        <time>2016-02-14T09:34:09Z</time>
      </trkpt>
      <trkpt lat="43.47066" lon="-1.50971">
        <ele>74.16</ele>
        <time>2016-02-14T09:34:13Z</time>
      </trkpt>
      <trkpt lat="43.47052" lon="-1.5095">
        <ele>73.68</ele>
        <time>2016-02-14T09:34:21Z</time>
      </trkpt>
      <trkpt lat="43.4705" lon="-1.50948">
        <ele>73.68</ele>
        <time>2016-02-14T09:34:22Z</time>
      </trkpt>
      <trkpt lat="43.47046" lon="-1.50951">
        <ele>73.2</ele>
        <time>2016-02-14T09:34:27Z</time>
      </trkpt>
      <trkpt lat="43.47045" lon="-1.50945">
        <ele>69.83</ele>
        <time>2016-02-14T09:34:35Z</time>
      </trkpt>
      <trkpt lat="43.47046" lon="-1.50946">
        <ele>69.35</ele>
        <time>2016-02-14T09:34:38Z</time>
      </trkpt>
      <trkpt lat="43.47046" lon="-1.50947">
        <ele>68.87</ele>
        <time>2016-02-14T09:34:40Z</time>
      </trkpt>
      <trkpt lat="43.47034" lon="-1.50951">
        <ele>67.91</ele>
        <time>2016-02-14T09:34:45Z</time>
      </trkpt>
      <trkpt lat="43.47018" lon="-1.50953">
        <ele>66.95</ele>
        <time>2016-02-14T09:34:49Z</time>
      </trkpt>
      <trkpt lat="43.46998" lon="-1.50964">
        <ele>65.99</ele>
        <time>2016-02-14T09:35:01Z</time>
      </trkpt>
      <trkpt lat="43.46993" lon="-1.51002">
        <ele>66.47</ele>
        <time>2016-02-14T09:35:15Z</time>
      </trkpt>
      <trkpt lat="43.46991" lon="-1.51044">
        <ele>66.47</ele>
        <time>2016-02-14T09:35:28Z</time>
      </trkpt>
      <trkpt lat="43.46989" lon="-1.51079">
        <ele>66.95</ele>
        <time>2016-02-14T09:35:39Z</time>
      </trkpt>
      <trkpt lat="43.46984" lon="-1.51111">
        <ele>68.87</ele>
        <time>2016-02-14T09:35:50Z</time>
      </trkpt>
      <trkpt lat="43.46984" lon="-1.51146">
        <ele>71.27</ele>
        <time>2016-02-14T09:36:01Z</time>
      </trkpt>
      <trkpt lat="43.46986" lon="-1.5118">
        <ele>71.27</ele>
        <time>2016-02-14T09:36:11Z</time>
      </trkpt>
      <trkpt lat="43.4699" lon="-1.5121">
        <ele>70.79</ele>
        <time>2016-02-14T09:36:20Z</time>
      </trkpt>
      <trkpt lat="43.46999" lon="-1.51242">
        <ele>70.31</ele>
        <time>2016-02-14T09:36:31Z</time>
      </trkpt>
      <trkpt lat="43.47" lon="-1.51245">
        <ele>70.31</ele>
        <time>2016-02-14T09:36:32Z</time>
      </trkpt>
      <trkpt lat="43.47022" lon="-1.5124">
        <ele>68.87</ele>
        <time>2016-02-14T09:36:41Z</time>
      </trkpt>
      <trkpt lat="43.47053" lon="-1.51233">
        <ele>68.39</ele>
        <time>2016-02-14T09:36:52Z</time>
      </trkpt>
      <trkpt lat="43.47065" lon="-1.51253">
        <ele>65.99</ele>
        <time>2016-02-14T09:37:00Z</time>
      </trkpt>
      <trkpt lat="43.47068" lon="-1.51299">
        <ele>65.03</ele>
        <time>2016-02-14T09:37:12Z</time>
      </trkpt>
      <trkpt lat="43.47074" lon="-1.51343">
        <ele>62.14</ele>
        <time>2016-02-14T09:37:24Z</time>
      </trkpt>
      <trkpt lat="43.4709" lon="-1.51368">
        <ele>60.7</ele>
        <time>2016-02-14T09:37:34Z</time>
      </trkpt>
      <trkpt lat="43.47113" lon="-1.51389">
        <ele>61.66</ele>
        <time>2016-02-14T09:37:45Z</time>
      </trkpt>
      <trkpt lat="43.47137" lon="-1.51407">
        <ele>61.66</ele>
        <time>2016-02-14T09:37:58Z</time>
      </trkpt>
      <trkpt lat="43.47143" lon="-1.51415">
        <ele>62.62</ele>
        <time>2016-02-14T09:38:04Z</time>
      </trkpt>
      <trkpt lat="43.47151" lon="-1.51419">
        <ele>63.1</ele>
        <time>2016-02-14T09:38:08Z</time>
      </trkpt>
      <trkpt lat="43.47187" lon="-1.51432">
        <ele>63.58</ele>
        <time>2016-02-14T09:38:19Z</time>
      </trkpt>
      <trkpt lat="43.4722" lon="-1.51435">
        <ele>62.14</ele>
        <time>2016-02-14T09:38:32Z</time>
      </trkpt>
      <trkpt lat="43.47253" lon="-1.51439">
        <ele>59.26</ele>
        <time>2016-02-14T09:38:43Z</time>
      </trkpt>
      <trkpt lat="43.47284" lon="-1.51439">
        <ele>53.01</ele>
        <time>2016-02-14T09:38:56Z</time>
      </trkpt>
      <trkpt lat="43.47312" lon="-1.51438">
        <ele>45.32</ele>
        <time>2016-02-14T09:39:06Z</time>
      </trkpt>
      <trkpt lat="43.47341" lon="-1.51437">
        <ele>41.95</ele>
        <time>2016-02-14T09:39:17Z</time>
      </trkpt>
      <trkpt lat="43.47375" lon="-1.51433">
        <ele>45.8</ele>
        <time>2016-02-14T09:39:29Z</time>
      </trkpt>
      <trkpt lat="43.47401" lon="-1.51435">
        <ele>44.36</ele>
        <time>2016-02-14T09:39:39Z</time>
      </trkpt>
      <trkpt lat="43.47429" lon="-1.51438">
        <ele>47.72</ele>
        <time>2016-02-14T09:39:51Z</time>
      </trkpt>
      <trkpt lat="43.4746" lon="-1.51444">
        <ele>43.88</ele>
        <time>2016-02-14T09:40:02Z</time>
      </trkpt>
      <trkpt lat="43.47493" lon="-1.5145">
        <ele>40.99</ele>
        <time>2016-02-14T09:40:14Z</time>
      </trkpt>
      <trkpt lat="43.47525" lon="-1.51463">
        <ele>40.99</ele>
        <time>2016-02-14T09:40:26Z</time>
      </trkpt>
      <trkpt lat="43.47556" lon="-1.51478">
        <ele>39.55</ele>
        <time>2016-02-14T09:40:36Z</time>
      </trkpt>
      <trkpt lat="43.47591" lon="-1.51499">
        <ele>37.15</ele>
        <time>2016-02-14T09:40:47Z</time>
      </trkpt>
      <trkpt lat="43.47596" lon="-1.51505">
        <ele>37.15</ele>
        <time>2016-02-14T09:40:49Z</time>
      </trkpt>
      <trkpt lat="43.47618" lon="-1.51548">
        <ele>35.23</ele>
        <time>2016-02-14T09:41:00Z</time>
      </trkpt>
      <trkpt lat="43.47639" lon="-1.51577">
        <ele>32.34</ele>
        <time>2016-02-14T09:41:10Z</time>
      </trkpt>
      <trkpt lat="43.47671" lon="-1.51607">
        <ele>28.5</ele>
        <time>2016-02-14T09:41:22Z</time>
      </trkpt>
      <trkpt lat="43.47698" lon="-1.51625">
        <ele>24.65</ele>
        <time>2016-02-14T09:41:33Z</time>
      </trkpt>
      <trkpt lat="43.47729" lon="-1.5165">
        <ele>21.29</ele>
        <time>2016-02-14T09:41:46Z</time>
      </trkpt>
      <trkpt lat="43.47734" lon="-1.51654">
        <ele>20.32</ele>
        <time>2016-02-14T09:41:48Z</time>
      </trkpt>
      <trkpt lat="43.47744" lon="-1.51665">
        <ele>20.81</ele>
        <time>2016-02-14T09:41:54Z</time>
      </trkpt>
      <trkpt lat="43.47779" lon="-1.51688">
        <ele>21.29</ele>
        <time>2016-02-14T09:42:06Z</time>
      </trkpt>
      <trkpt lat="43.47814" lon="-1.51697">
        <ele>17.92</ele>
        <time>2016-02-14T09:42:16Z</time>
      </trkpt>
      <trkpt lat="43.47847" lon="-1.51703">
        <ele>16.96</ele>
        <time>2016-02-14T09:42:26Z</time>
      </trkpt>
      <trkpt lat="43.47886" lon="-1.51709">
        <ele>17.44</ele>
        <time>2016-02-14T09:42:38Z</time>
      </trkpt>
      <trkpt lat="43.47916" lon="-1.51713">
        <ele>17.44</ele>
        <time>2016-02-14T09:42:49Z</time>
      </trkpt>
      <trkpt lat="43.47946" lon="-1.51718">
        <ele>15.04</ele>
        <time>2016-02-14T09:42:59Z</time>
      </trkpt>
      <trkpt lat="43.47976" lon="-1.51721">
        <ele>14.56</ele>
        <time>2016-02-14T09:43:09Z</time>
      </trkpt>
      <trkpt lat="43.47986" lon="-1.51692">
        <ele>14.56</ele>
        <time>2016-02-14T09:43:18Z</time>
      </trkpt>
      <trkpt lat="43.47994" lon="-1.51659">
        <ele>15.52</ele>
        <time>2016-02-14T09:43:27Z</time>
      </trkpt>
      <trkpt lat="43.47999" lon="-1.51644">
        <ele>17.44</ele>
        <time>2016-02-14T09:43:33Z</time>
      </trkpt>
      <trkpt lat="43.48008" lon="-1.5161">
        <ele>19.36</ele>
        <time>2016-02-14T09:43:44Z</time>
      </trkpt>
      <trkpt lat="43.48014" lon="-1.51598">
        <ele>19.84</ele>
        <time>2016-02-14T09:43:49Z</time>
      </trkpt>
      <trkpt lat="43.48012" lon="-1.51589">
        <ele>20.32</ele>
        <time>2016-02-14T09:43:52Z</time>
      </trkpt>
      <trkpt lat="43.48013" lon="-1.51577">
        <ele>20.81</ele>
        <time>2016-02-14T09:43:59Z</time>
      </trkpt>
      <trkpt lat="43.48022" lon="-1.51546">
        <ele>24.17</ele>
        <time>2016-02-14T09:44:06Z</time>
      </trkpt>
      <trkpt lat="43.48028" lon="-1.51514">
        <ele>25.61</ele>
        <time>2016-02-14T09:44:12Z</time>
      </trkpt>
      <trkpt lat="43.48032" lon="-1.51492">
        <ele>26.09</ele>
        <time>2016-02-14T09:44:17Z</time>
      </trkpt>
      <trkpt lat="43.4805" lon="-1.5143">
        <ele>26.57</ele>
        <time>2016-02-14T09:44:29Z</time>
      </trkpt>
      <trkpt lat="43.48061" lon="-1.51379">
        <ele>27.53</ele>
        <time>2016-02-14T09:44:39Z</time>
      </trkpt>
      <trkpt lat="43.48065" lon="-1.51334">
        <ele>27.53</ele>
        <time>2016-02-14T09:44:50Z</time>
      </trkpt>
      <trkpt lat="43.4808" lon="-1.51281">
        <ele>26.57</ele>
        <time>2016-02-14T09:45:01Z</time>
      </trkpt>
      <trkpt lat="43.48093" lon="-1.51219">
        <ele>22.25</ele>
        <time>2016-02-14T09:45:14Z</time>
      </trkpt>
      <trkpt lat="43.48106" lon="-1.51165">
        <ele>15.52</ele>
        <time>2016-02-14T09:45:26Z</time>
      </trkpt>
      <trkpt lat="43.48123" lon="-1.5109">
        <ele>10.71</ele>
        <time>2016-02-14T09:45:43Z</time>
      </trkpt>
      <trkpt lat="43.48133" lon="-1.51052">
        <ele>8.31</ele>
        <time>2016-02-14T09:45:52Z</time>
      </trkpt>
      <trkpt lat="43.48143" lon="-1.51002">
        <ele>8.79</ele>
        <time>2016-02-14T09:46:05Z</time>
      </trkpt>
      <trkpt lat="43.4814" lon="-1.50965">
        <ele>9.27</ele>
        <time>2016-02-14T09:46:15Z</time>
      </trkpt>
      <trkpt lat="43.4814" lon="-1.50958">
        <ele>9.27</ele>
        <time>2016-02-14T09:46:18Z</time>
      </trkpt>
      <trkpt lat="43.48159" lon="-1.50937">
        <ele>10.23</ele>
        <time>2016-02-14T09:46:27Z</time>
      </trkpt>
      <trkpt lat="43.4817" lon="-1.50903">
        <ele>9.27</ele>
        <time>2016-02-14T09:46:36Z</time>
      </trkpt>
      <trkpt lat="43.48172" lon="-1.50895">
        <ele>9.27</ele>
        <time>2016-02-14T09:46:38Z</time>
      </trkpt>
      <trkpt lat="43.48172" lon="-1.50885">
        <ele>9.75</ele>
        <time>2016-02-14T09:46:40Z</time>
      </trkpt>
      <trkpt lat="43.48183" lon="-1.50834">
        <ele>11.19</ele>
        <time>2016-02-14T09:46:52Z</time>
      </trkpt>
      <trkpt lat="43.48198" lon="-1.50809">
        <ele>11.67</ele>
        <time>2016-02-14T09:46:59Z</time>
      </trkpt>
      <trkpt lat="43.48197" lon="-1.50792">
        <ele>12.15</ele>
        <time>2016-02-14T09:47:04Z</time>
      </trkpt>
      <trkpt lat="43.48198" lon="-1.50774">
        <ele>12.63</ele>
        <time>2016-02-14T09:47:10Z</time>
      </trkpt>
      <trkpt lat="43.48201" lon="-1.50754">
        <ele>13.12</ele>
        <time>2016-02-14T09:47:16Z</time>
      </trkpt>
      <trkpt lat="43.48213" lon="-1.50703">
        <ele>11.19</ele>
        <time>2016-02-14T09:47:26Z</time>
      </trkpt>
      <trkpt lat="43.48212" lon="-1.50702">
        <ele>11.19</ele>
        <time>2016-02-14T09:47:27Z</time>
      </trkpt>
      <trkpt lat="43.48208" lon="-1.50677">
        <ele>11.67</ele>
        <time>2016-02-14T09:47:37Z</time>
      </trkpt>
      <trkpt lat="43.48222" lon="-1.50634">
        <ele>12.15</ele>
        <time>2016-02-14T09:47:47Z</time>
      </trkpt>
      <trkpt lat="43.48223" lon="-1.50613">
        <ele>13.12</ele>
        <time>2016-02-14T09:47:54Z</time>
      </trkpt>
      <trkpt lat="43.48235" lon="-1.50582">
        <ele>13.12</ele>
        <time>2016-02-14T09:48:02Z</time>
      </trkpt>
      <trkpt lat="43.48236" lon="-1.50532">
        <ele>16.48</ele>
        <time>2016-02-14T09:48:15Z</time>
      </trkpt>
      <trkpt lat="43.48249" lon="-1.5049">
        <ele>16.96</ele>
        <time>2016-02-14T09:48:26Z</time>
      </trkpt>
      <trkpt lat="43.48251" lon="-1.50483">
        <ele>17.44</ele>
        <time>2016-02-14T09:48:28Z</time>
      </trkpt>
      <trkpt lat="43.4826" lon="-1.50441">
        <ele>21.77</ele>
        <time>2016-02-14T09:48:39Z</time>
      </trkpt>
      <trkpt lat="43.48268" lon="-1.50386">
        <ele>20.81</ele>
        <time>2016-02-14T09:48:50Z</time>
      </trkpt>
      <trkpt lat="43.48282" lon="-1.50358">
        <ele>18.4</ele>
        <time>2016-02-14T09:48:58Z</time>
      </trkpt>
      <trkpt lat="43.48292" lon="-1.50321">
        <ele>17.44</ele>
        <time>2016-02-14T09:49:07Z</time>
      </trkpt>
      <trkpt lat="43.48306" lon="-1.50285">
        <ele>16.48</ele>
        <time>2016-02-14T09:49:18Z</time>
      </trkpt>
      <trkpt lat="43.48309" lon="-1.50245">
        <ele>14.08</ele>
        <time>2016-02-14T09:49:28Z</time>
      </trkpt>
      <trkpt lat="43.48318" lon="-1.50205">
        <ele>14.08</ele>
        <time>2016-02-14T09:49:38Z</time>
      </trkpt>
      <trkpt lat="43.48331" lon="-1.50172">
        <ele>12.15</ele>
        <time>2016-02-14T09:49:48Z</time>
      </trkpt>
      <trkpt lat="43.48346" lon="-1.50141">
        <ele>13.6</ele>
        <time>2016-02-14T09:49:59Z</time>
      </trkpt>
      <trkpt lat="43.4836" lon="-1.50109">
        <ele>15.04</ele>
        <time>2016-02-14T09:50:09Z</time>
      </trkpt>
      <trkpt lat="43.4836" lon="-1.50062">
        <ele>16.96</ele>
        <time>2016-02-14T09:50:21Z</time>
      </trkpt>
      <trkpt lat="43.48371" lon="-1.50025">
        <ele>16.48</ele>
        <time>2016-02-14T09:50:32Z</time>
      </trkpt>
      <trkpt lat="43.48378" lon="-1.49998">
        <ele>16.96</ele>
        <time>2016-02-14T09:50:43Z</time>
      </trkpt>
      <trkpt lat="43.48377" lon="-1.49976">
        <ele>15.52</ele>
        <time>2016-02-14T09:50:52Z</time>
      </trkpt>
      <trkpt lat="43.48361" lon="-1.4996">
        <ele>18.4</ele>
        <time>2016-02-14T09:51:02Z</time>
      </trkpt>
      <trkpt lat="43.48342" lon="-1.49941">
        <ele>21.29</ele>
        <time>2016-02-14T09:51:12Z</time>
      </trkpt>
      <trkpt lat="43.48321" lon="-1.49918">
        <ele>20.32</ele>
        <time>2016-02-14T09:51:22Z</time>
      </trkpt>
      <trkpt lat="43.48308" lon="-1.49902">
        <ele>23.69</ele>
        <time>2016-02-14T09:51:32Z</time>
      </trkpt>
      <trkpt lat="43.48308" lon="-1.49897">
        <ele>24.17</ele>
        <time>2016-02-14T09:51:34Z</time>
      </trkpt>
      <trkpt lat="43.48298" lon="-1.4989">
        <ele>25.13</ele>
        <time>2016-02-14T09:51:38Z</time>
      </trkpt>
      <trkpt lat="43.48295" lon="-1.4987">
        <ele>22.73</ele>
        <time>2016-02-14T09:51:44Z</time>
      </trkpt>
      <trkpt lat="43.48276" lon="-1.4985">
        <ele>21.29</ele>
        <time>2016-02-14T09:51:56Z</time>
      </trkpt>
      <trkpt lat="43.48268" lon="-1.49834">
        <ele>23.69</ele>
        <time>2016-02-14T09:52:05Z</time>
      </trkpt>
      <trkpt lat="43.48262" lon="-1.49829">
        <ele>25.61</ele>
        <time>2016-02-14T09:52:11Z</time>
      </trkpt>
      <trkpt lat="43.48251" lon="-1.49825">
        <ele>28.98</ele>
        <time>2016-02-14T09:52:15Z</time>
      </trkpt>
      <trkpt lat="43.48225" lon="-1.4981">
        <ele>32.34</ele>
        <time>2016-02-14T09:52:24Z</time>
      </trkpt>
      <trkpt lat="43.4821" lon="-1.49814">
        <ele>32.34</ele>
        <time>2016-02-14T09:52:26Z</time>
      </trkpt>
      <trkpt lat="43.48161" lon="-1.49843">
        <ele>23.21</ele>
        <time>2016-02-14T09:52:38Z</time>
      </trkpt>
      <trkpt lat="43.48142" lon="-1.49878">
        <ele>21.77</ele>
        <time>2016-02-14T09:52:49Z</time>
      </trkpt>
      <trkpt lat="43.48127" lon="-1.49907">
        <ele>20.81</ele>
        <time>2016-02-14T09:52:58Z</time>
      </trkpt>
      <trkpt lat="43.48115" lon="-1.49927">
        <ele>20.81</ele>
        <time>2016-02-14T09:53:05Z</time>
      </trkpt>
      <trkpt lat="43.48107" lon="-1.4995">
        <ele>20.32</ele>
        <time>2016-02-14T09:53:14Z</time>
      </trkpt>
      <trkpt lat="43.48106" lon="-1.49953">
        <ele>20.32</ele>
        <time>2016-02-14T09:53:15Z</time>
      </trkpt>
      <trkpt lat="43.48087" lon="-1.49988">
        <ele>20.81</ele>
        <time>2016-02-14T09:53:26Z</time>
      </trkpt>
      <trkpt lat="43.48065" lon="-1.50024">
        <ele>21.77</ele>
        <time>2016-02-14T09:53:39Z</time>
      </trkpt>
      <trkpt lat="43.48047" lon="-1.50061">
        <ele>24.17</ele>
        <time>2016-02-14T09:53:52Z</time>
      </trkpt>
      <trkpt lat="43.48032" lon="-1.50089">
        <ele>26.09</ele>
        <time>2016-02-14T09:54:01Z</time>
      </trkpt>
      <trkpt lat="43.48016" lon="-1.50117">
        <ele>29.46</ele>
        <time>2016-02-14T09:54:11Z</time>
      </trkpt>
      <trkpt lat="43.48013" lon="-1.50123">
        <ele>28.98</ele>
        <time>2016-02-14T09:54:13Z</time>
      </trkpt>
      <trkpt lat="43.4801" lon="-1.50129">
        <ele>28.98</ele>
        <time>2016-02-14T09:54:18Z</time>
      </trkpt>
      <trkpt lat="43.47984" lon="-1.50122">
        <ele>28.98</ele>
        <time>2016-02-14T09:54:30Z</time>
      </trkpt>
      <trkpt lat="43.4795" lon="-1.50121">
        <ele>28.5</ele>
        <time>2016-02-14T09:54:38Z</time>
      </trkpt>
      <trkpt lat="43.47932" lon="-1.50086">
        <ele>29.94</ele>
        <time>2016-02-14T09:54:49Z</time>
      </trkpt>
      <trkpt lat="43.47925" lon="-1.50041">
        <ele>30.9</ele>
        <time>2016-02-14T09:55:01Z</time>
      </trkpt>
      <trkpt lat="43.47921" lon="-1.49999">
        <ele>26.57</ele>
        <time>2016-02-14T09:55:12Z</time>
      </trkpt>
      <trkpt lat="43.47912" lon="-1.4994">
        <ele>28.5</ele>
        <time>2016-02-14T09:55:26Z</time>
      </trkpt>
      <trkpt lat="43.47904" lon="-1.49889">
        <ele>29.46</ele>
        <time>2016-02-14T09:55:37Z</time>
      </trkpt>
      <trkpt lat="43.47894" lon="-1.49852">
        <ele>30.9</ele>
        <time>2016-02-14T09:55:47Z</time>
      </trkpt>
      <trkpt lat="43.47891" lon="-1.49839">
        <ele>32.34</ele>
        <time>2016-02-14T09:55:51Z</time>
      </trkpt>
      <trkpt lat="43.47882" lon="-1.49826">
        <ele>33.3</ele>
        <time>2016-02-14T09:55:56Z</time>
      </trkpt>
      <trkpt lat="43.4788" lon="-1.4981">
        <ele>35.23</ele>
        <time>2016-02-14T09:56:00Z</time>
      </trkpt>
      <trkpt lat="43.47875" lon="-1.49769">
        <ele>37.15</ele>
        <time>2016-02-14T09:56:11Z</time>
      </trkpt>
      <trkpt lat="43.47869" lon="-1.49729">
        <ele>38.11</ele>
        <time>2016-02-14T09:56:23Z</time>
      </trkpt>
      <trkpt lat="43.47863" lon="-1.49705">
        <ele>39.07</ele>
        <time>2016-02-14T09:56:31Z</time>
      </trkpt>
      <trkpt lat="43.47854" lon="-1.49677">
        <ele>40.51</ele>
        <time>2016-02-14T09:56:41Z</time>
      </trkpt>
      <trkpt lat="43.47844" lon="-1.49646">
        <ele>41.95</ele>
        <time>2016-02-14T09:56:51Z</time>
      </trkpt>
      <trkpt lat="43.4784" lon="-1.49603">
        <ele>42.44</ele>
        <time>2016-02-14T09:57:03Z</time>
      </trkpt>
      <trkpt lat="43.47831" lon="-1.496">
        <ele>41.95</ele>
        <time>2016-02-14T09:57:14Z</time>
      </trkpt>
      <trkpt lat="43.4783" lon="-1.496">
        <ele>41.95</ele>
        <time>2016-02-14T09:57:15Z</time>
      </trkpt>
      <trkpt lat="43.47833" lon="-1.49588">
        <ele>40.51</ele>
        <time>2016-02-14T09:57:19Z</time>
      </trkpt>
      <trkpt lat="43.47834" lon="-1.49589">
        <ele>39.55</ele>
        <time>2016-02-14T09:57:25Z</time>
      </trkpt>
      <trkpt lat="43.47823" lon="-1.49596">
        <ele>39.07</ele>
        <time>2016-02-14T09:57:30Z</time>
      </trkpt>
      <trkpt lat="43.47807" lon="-1.49604">
        <ele>38.11</ele>
        <time>2016-02-14T09:57:35Z</time>
      </trkpt>
      <trkpt lat="43.47788" lon="-1.4961">
        <ele>37.63</ele>
        <time>2016-02-14T09:57:44Z</time>
      </trkpt>
      <trkpt lat="43.47777" lon="-1.49603">
        <ele>40.99</ele>
        <time>2016-02-14T09:57:55Z</time>
      </trkpt>
      <trkpt lat="43.47751" lon="-1.4961">
        <ele>41.47</ele>
        <time>2016-02-14T09:58:07Z</time>
      </trkpt>
      <trkpt lat="43.47732" lon="-1.49618">
        <ele>41.47</ele>
        <time>2016-02-14T09:58:14Z</time>
      </trkpt>
      <trkpt lat="43.47704" lon="-1.49642">
        <ele>40.99</ele>
        <time>2016-02-14T09:58:24Z</time>
      </trkpt>
      <trkpt lat="43.4767" lon="-1.49653">
        <ele>39.55</ele>
        <time>2016-02-14T09:58:36Z</time>
      </trkpt>
      <trkpt lat="43.47635" lon="-1.49669">
        <ele>34.74</ele>
        <time>2016-02-14T09:58:47Z</time>
      </trkpt>
      <trkpt lat="43.47625" lon="-1.49688">
        <ele>34.74</ele>
        <time>2016-02-14T09:58:56Z</time>
      </trkpt>
      <trkpt lat="43.47628" lon="-1.49712">
        <ele>36.19</ele>
        <time>2016-02-14T09:59:04Z</time>
      </trkpt>
      <trkpt lat="43.47623" lon="-1.4973">
        <ele>35.23</ele>
        <time>2016-02-14T09:59:09Z</time>
      </trkpt>
      <trkpt lat="43.4762" lon="-1.49739">
        <ele>32.82</ele>
        <time>2016-02-14T09:59:11Z</time>
      </trkpt>
      <trkpt lat="43.47615" lon="-1.49752">
        <ele>31.38</ele>
        <time>2016-02-14T09:59:17Z</time>
      </trkpt>
      <trkpt lat="43.47602" lon="-1.49759">
        <ele>30.42</ele>
        <time>2016-02-14T09:59:27Z</time>
      </trkpt>
      <trkpt lat="43.47598" lon="-1.49762">
        <ele>30.9</ele>
        <time>2016-02-14T09:59:29Z</time>
      </trkpt>
      <trkpt lat="43.47598" lon="-1.49766">
        <ele>31.38</ele>
        <time>2016-02-14T09:59:32Z</time>
      </trkpt>
      <trkpt lat="43.47598" lon="-1.4977">
        <ele>32.82</ele>
        <time>2016-02-14T09:59:35Z</time>
      </trkpt>
      <trkpt lat="43.47589" lon="-1.49777">
        <ele>33.3</ele>
        <time>2016-02-14T09:59:41Z</time>
      </trkpt>
      <trkpt lat="43.47583" lon="-1.49773">
        <ele>33.3</ele>
        <time>2016-02-14T09:59:44Z</time>
      </trkpt>
      <trkpt lat="43.47581" lon="-1.49777">
        <ele>33.78</ele>
        <time>2016-02-14T09:59:46Z</time>
      </trkpt>
      <trkpt lat="43.47574" lon="-1.49793">
        <ele>34.26</ele>
        <time>2016-02-14T09:59:51Z</time>
      </trkpt>
      <trkpt lat="43.47571" lon="-1.49832">
        <ele>37.63</ele>
        <time>2016-02-14T10:00:02Z</time>
      </trkpt>
      <trkpt lat="43.4757" lon="-1.49862">
        <ele>39.07</ele>
        <time>2016-02-14T10:00:11Z</time>
      </trkpt>
      <trkpt lat="43.47567" lon="-1.49881">
        <ele>40.51</ele>
        <time>2016-02-14T10:00:20Z</time>
      </trkpt>
      <trkpt lat="43.47566" lon="-1.49881">
        <ele>40.99</ele>
        <time>2016-02-14T10:00:21Z</time>
      </trkpt>
      <trkpt lat="43.47545" lon="-1.49878">
        <ele>44.36</ele>
        <time>2016-02-14T10:00:31Z</time>
      </trkpt>
      <trkpt lat="43.47533" lon="-1.49881">
        <ele>43.88</ele>
        <time>2016-02-14T10:00:39Z</time>
      </trkpt>
      <trkpt lat="43.47526" lon="-1.49881">
        <ele>44.36</ele>
        <time>2016-02-14T10:00:43Z</time>
      </trkpt>
      <trkpt lat="43.47507" lon="-1.49877">
        <ele>44.84</ele>
        <time>2016-02-14T10:00:54Z</time>
      </trkpt>
      <trkpt lat="43.47503" lon="-1.49875">
        <ele>45.8</ele>
        <time>2016-02-14T10:00:57Z</time>
      </trkpt>
      <trkpt lat="43.47501" lon="-1.49866">
        <ele>48.2</ele>
        <time>2016-02-14T10:01:04Z</time>
      </trkpt>
      <trkpt lat="43.47491" lon="-1.49853">
        <ele>55.41</ele>
        <time>2016-02-14T10:01:11Z</time>
      </trkpt>
      <trkpt lat="43.4743" lon="-1.49838">
        <ele>50.13</ele>
        <time>2016-02-14T10:01:25Z</time>
      </trkpt>
      <trkpt lat="43.4738" lon="-1.49834">
        <ele>36.19</ele>
        <time>2016-02-14T10:01:44Z</time>
      </trkpt>
    </trkseg>
  </trk>
</gpx>